Muir Army Air Field (Fort Indiantown Gap) Airport
KMUI : now visible

Airfield :











YOU CAN JOIN US ON...

 
LOGIN :

Register | Disclaimer

   EN    FR    IT 

 









Legend :    VFR   Marginal VFR   IFR   Intensive IFR   Very Intensive IFR
Visi :
Ceiling :
>= 8 km
>= 3000ft
5 to 8 km
1000 to 3000 ft
1500m to 5 km
500 to 1000 ft
800 to 1500m
200 to 500 ft
< 800m
< 200 ft
Symbols :   Thunderstorms  Fog  Heavy snow  Heavy precipitations  Wind > 20 kt






- Airport Elevation : 488 ft


KMUI - Muir Army Air Field (Fort Indiantown Gap)

CURRENT METAR :
  • 241556Z 18004KT 10SM BKN250 07/M02 A3003 RMK AO2A SLP175 T00651024

EXPIRED METARs :
  • 241456Z 00000KT 10SM BKN250 04/M02 A3005 RMK AO2A SLP182 T00441025 58001
  • 241356Z 00000KT 10SM BKN250 02/M03 A3006 RMK AO2A SLP185 T00231028

TAF AMD TAF KMUI
Valid from the 24 at 15:00 until the 25 at 17:00 UTC


241504Z 2415/2517 VRB06KT 9999 BKN250 QNH3000INS
BECMG 2419/2420 20012G18KT 9999 SCT040 BKN090 QNH2977INS
TEMPO 2420/2423 20020G25KT
BECMG 2502/2503 27012KT 9999 SCT030 520053 510653 QNH2983INS TX11/2421Z TN02/2416Z
KZNY FIR / North America



MET'MAP, your aeronautical weather chart ! - Copyright ORBIFLY December 2007 - Disclaimer

ORBIFLY MET'MAP TEAM :

Programming & Development : Alexandra Zaïnal
Concept & original design : Baudouin d'Aumeries
Assistance for programming : Marc-Olivier Méhu
Technical & hardware support : Manuel Goepfert

Contact : metmap@orbifly.com




SOURCES & CREDITS :

   NOAA       Earth
Advisory